Time;durP1;ratioP1;P1;durP2;ratioP2;P2;SDS_P1;SDS_P2;PMS_P1;PMS_P2;Temp;Humidity;BMP_temperature;BMP_pressure;BME280_temperature;BME280_humidity;BME280_pressure;Samples;Min_cycle;Max_cycle;Signal;HPM_P1;HPM_P2
2023/08/18 00:01:29;;;;;;;8.73;6.20;;;18.30;99.90;;;;;;4872553;29;20148;-47
2023/08/18 00:03:56;;;;;;;11.98;7.10;;;18.20;99.90;;;;;;4873091;29;20056;-49
2023/08/18 00:06:24;;;;;;;11.13;7.50;;;18.30;99.90;;;;;;4871751;29;20049;-47
2023/08/18 00:08:52;;;;;;;10.65;7.90;;;18.30;99.90;;;;;;4872973;29;20079;-46
2023/08/18 00:11:19;;;;;;;10.43;7.18;;;18.30;99.90;;;;;;4873633;29;20041;-48
2023/08/18 00:13:46;;;;;;;11.05;7.47;;;18.30;99.90;;;;;;4871110;29;20497;-48
2023/08/18 00:16:13;;;;;;;12.02;8.45;;;18.20;99.90;;;;;;4874046;29;20559;-48
2023/08/18 00:18:41;;;;;;;14.52;8.20;;;18.30;99.90;;;;;;4872953;29;20048;-49
2023/08/18 00:21:08;;;;;;;14.27;8.70;;;18.30;99.90;;;;;;4868517;29;20081;-46
2023/08/18 00:23:36;;;;;;;15.63;9.98;;;18.30;99.90;;;;;;4871641;29;20081;-47
2023/08/18 00:26:03;;;;;;;13.45;9.00;;;18.30;99.90;;;;;;4870696;29;20087;-47
2023/08/18 00:28:30;;;;;;;12.23;9.25;;;18.30;99.90;;;;;;4871095;29;20085;-50
2023/08/18 00:30:58;;;;;;;12.02;9.35;;;18.40;99.90;;;;;;4870134;29;20427;-47
2023/08/18 00:33:26;;;;;;;16.63;9.50;;;18.30;99.90;;;;;;4858429;29;20106;-44
2023/08/18 00:35:53;;;;;;;11.43;8.88;;;18.40;99.90;;;;;;4857069;29;20442;-46
2023/08/18 00:38:20;;;;;;;15.38;9.65;;;18.40;99.90;;;;;;4871968;29;20613;-51
2023/08/18 00:40:48;;;;;;;12.50;8.93;;;18.40;99.90;;;;;;4865801;29;20063;-47
2023/08/18 00:43:15;;;;;;;12.32;8.70;;;18.40;99.90;;;;;;4873543;29;20132;-45
2023/08/18 00:45:43;;;;;;;11.48;8.82;;;18.40;99.90;;;;;;4857735;29;20086;-43
2023/08/18 00:48:11;;;;;;;11.57;8.05;;;18.40;99.90;;;;;;4873412;29;20053;-50
2023/08/18 00:50:39;;;;;;;12.60;8.15;;;18.40;99.90;;;;;;4859379;29;20057;-47
2023/08/18 00:53:06;;;;;;;13.20;7.95;;;18.50;99.90;;;;;;4875262;29;20735;-47
2023/08/18 00:55:34;;;;;;;10.52;8.25;;;18.40;99.90;;;;;;4866580;29;20081;-48
2023/08/18 00:58:02;;;;;;;10.48;7.75;;;18.40;99.90;;;;;;4873769;29;20141;-48
2023/08/18 01:00:30;;;;;;;11.23;7.43;;;18.40;99.90;;;;;;4868311;29;20061;-46
2023/08/18 01:02:58;;;;;;;10.07;7.75;;;18.30;99.90;;;;;;4869032;29;20384;-46
2023/08/18 01:05:26;;;;;;;13.07;8.35;;;18.30;99.90;;;;;;4871760;29;20061;-45
2023/08/18 01:07:53;;;;;;;9.07;7.47;;;18.30;99.90;;;;;;4873089;29;20518;-50
2023/08/18 01:10:22;;;;;;;10.68;6.85;;;18.30;99.90;;;;;;4871682;29;20130;-45
2023/08/18 01:12:57;;;;;;;10.07;7.07;;;18.30;99.90;;;;;;4869851;29;20045;-47
2023/08/18 01:15:32;;;;;;;9.95;7.03;;;18.20;99.90;;;;;;4871041;29;20076;-47
2023/08/18 01:18:01;;;;;;;12.38;7.05;;;18.20;99.90;;;;;;4870969;29;20053;-46
2023/08/18 01:20:30;;;;;;;11.25;7.28;;;18.10;99.90;;;;;;4874817;29;20049;-47
2023/08/18 01:22:58;;;;;;;10.20;7.13;;;18.10;99.90;;;;;;4844089;29;20911;-45
2023/08/18 01:25:26;;;;;;;9.70;6.55;;;18.10;99.90;;;;;;4855545;29;20465;-49
2023/08/18 01:27:56;;;;;;;9.38;6.68;;;18.00;99.90;;;;;;4872484;29;20152;-48
2023/08/18 01:30:50;;;;;;;7.78;6.35;;;18.00;99.90;;;;;;4870282;29;20102;-46
2023/08/18 01:33:25;;;;;;;10.10;6.90;;;18.00;99.90;;;;;;4873309;29;20511;-48
2023/08/18 01:35:56;;;;;;;11.50;6.30;;;18.00;99.90;;;;;;4855272;29;20148;-53
2023/08/18 01:38:26;;;;;;;10.82;6.63;;;18.00;99.90;;;;;;4864364;29;20072;-46
2023/08/18 01:40:54;;;;;;;9.57;6.15;;;17.90;99.90;;;;;;4871282;29;20061;-45
2023/08/18 01:43:22;;;;;;;11.18;6.82;;;17.90;99.90;;;;;;4873705;29;20045;-46
2023/08/18 01:45:49;;;;;;;9.38;6.55;;;17.90;99.90;;;;;;4873520;29;20202;-45
2023/08/18 01:48:16;;;;;;;10.52;6.32;;;17.90;99.90;;;;;;4872290;29;20535;-46
2023/08/18 01:50:44;;;;;;;8.32;5.95;;;17.90;99.90;;;;;;4867236;29;20084;-52
2023/08/18 01:53:11;;;;;;;10.20;6.60;;;17.80;99.90;;;;;;4871833;29;20132;-45
2023/08/18 01:55:38;;;;;;;8.65;6.05;;;17.80;99.90;;;;;;4871979;29;20072;-51
2023/08/18 01:58:06;;;;;;;9.50;6.32;;;17.70;99.90;;;;;;4846349;29;20045;-44
2023/08/18 02:00:33;;;;;;;8.48;6.22;;;17.70;99.90;;;;;;4845896;29;20140;-46
2023/08/18 02:03:00;;;;;;;9.52;5.97;;;17.70;99.90;;;;;;4872258;29;20064;-43
2023/08/18 02:05:28;;;;;;;7.88;5.40;;;17.70;99.90;;;;;;4868756;29;20053;-46
2023/08/18 02:07:55;;;;;;;9.95;6.10;;;17.70;99.90;;;;;;4873937;29;20080;-46
2023/08/18 02:10:22;;;;;;;9.55;5.85;;;17.70;99.90;;;;;;4871374;29;20041;-50
2023/08/18 02:12:50;;;;;;;8.95;5.90;;;17.70;99.90;;;;;;4848565;29;20080;-46
2023/08/18 02:15:17;;;;;;;8.65;5.38;;;17.70;99.90;;;;;;4855925;29;20030;-47
2023/08/18 02:17:44;;;;;;;8.95;5.82;;;17.70;99.90;;;;;;4873530;29;20049;-44
2023/08/18 02:20:12;;;;;;;9.00;5.53;;;17.70;99.90;;;;;;4868522;29;20683;-48
2023/08/18 02:22:39;;;;;;;10.43;5.75;;;17.70;99.90;;;;;;4843565;29;20049;-50
2023/08/18 02:25:07;;;;;;;10.15;5.05;;;17.60;99.90;;;;;;4846348;29;20452;-45
2023/08/18 02:27:34;;;;;;;9.02;5.43;;;17.60;99.90;;;;;;4866158;29;20064;-48
2023/08/18 02:30:03;;;;;;;10.18;5.75;;;17.60;99.90;;;;;;4854948;29;20510;-45
2023/08/18 02:32:31;;;;;;;13.73;5.63;;;17.60;99.90;;;;;;4872242;29;20059;-45
2023/08/18 02:34:58;;;;;;;10.48;5.05;;;17.60;99.90;;;;;;4869013;29;20053;-45
2023/08/18 02:37:25;;;;;;;8.57;5.32;;;17.60;99.90;;;;;;4854824;29;20061;-46
2023/08/18 02:39:54;;;;;;;8.68;4.95;;;17.50;99.90;;;;;;4845327;29;20049;-44
2023/08/18 02:42:22;;;;;;;7.07;5.03;;;17.50;99.90;;;;;;4844818;29;20048;-48
2023/08/18 02:44:50;;;;;;;11.95;5.53;;;17.50;99.90;;;;;;4870540;29;20116;-47
2023/08/18 02:47:17;;;;;;;8.52;5.50;;;17.50;99.90;;;;;;4841591;29;20128;-47
2023/08/18 02:49:47;;;;;;;7.60;4.40;;;17.50;99.90;;;;;;4847663;29;20068;-43
2023/08/18 02:52:14;;;;;;;7.53;4.85;;;17.50;99.90;;;;;;4870315;29;20049;-44
2023/08/18 02:54:42;;;;;;;11.52;4.65;;;17.40;99.90;;;;;;4866130;29;20048;-46
2023/08/18 02:57:09;;;;;;;6.00;4.20;;;17.40;99.90;;;;;;4869382;29;20525;-48
2023/08/18 02:59:37;;;;;;;7.22;4.95;;;17.40;99.90;;;;;;4863601;29;20045;-48
2023/08/18 03:02:05;;;;;;;7.18;4.18;;;17.40;99.90;;;;;;4870591;29;20081;-45
2023/08/18 03:04:32;;;;;;;8.00;4.68;;;17.40;99.90;;;;;;4865497;29;20522;-44
2023/08/18 03:06:59;;;;;;;7.55;4.60;;;17.40;99.90;;;;;;4863527;29;20089;-47
2023/08/18 03:09:27;;;;;;;7.35;4.55;;;17.40;99.90;;;;;;4869664;29;20107;-45
2023/08/18 03:11:54;;;;;;;9.13;4.38;;;17.40;99.90;;;;;;4869840;29;20064;-47
2023/08/18 03:14:22;;;;;;;6.60;4.40;;;17.40;99.90;;;;;;4871685;29;20057;-44
2023/08/18 03:16:50;;;;;;;6.13;4.30;;;17.40;99.90;;;;;;4870701;29;20060;-48
2023/08/18 03:19:18;;;;;;;8.52;4.32;;;17.40;99.90;;;;;;4868458;29;20055;-45
2023/08/18 03:21:47;;;;;;;9.23;4.32;;;17.40;99.90;;;;;;4869394;29;20049;-52
2023/08/18 03:24:15;;;;;;;6.18;4.00;;;17.40;99.90;;;;;;4848458;29;20060;-47
2023/08/18 03:26:43;;;;;;;8.50;4.15;;;17.30;99.90;;;;;;4855163;29;20044;-45
2023/08/18 03:29:10;;;;;;;5.93;3.72;;;17.40;99.90;;;;;;4854593;29;20215;-47
2023/08/18 03:31:37;;;;;;;8.13;3.90;;;17.40;99.90;;;;;;4867288;29;20440;-45
2023/08/18 03:34:05;;;;;;;7.15;3.75;;;17.30;99.90;;;;;;4849517;29;20132;-47
2023/08/18 03:36:32;;;;;;;6.40;3.90;;;17.40;99.90;;;;;;4863153;29;20260;-43
2023/08/18 03:38:59;;;;;;;9.55;3.80;;;17.30;99.90;;;;;;4849963;29;20088;-43
2023/08/18 03:41:26;;;;;;;6.43;3.88;;;17.30;99.90;;;;;;4874905;29;21113;-45
2023/08/18 03:43:54;;;;;;;6.88;3.60;;;17.30;99.90;;;;;;4874090;29;20481;-46
2023/08/18 03:46:23;;;;;;;5.88;3.40;;;17.30;99.90;;;;;;4857319;29;20049;-44
2023/08/18 03:48:54;;;;;;;9.10;3.22;;;17.30;99.90;;;;;;4855905;29;20055;-47
2023/08/18 03:51:22;;;;;;;5.95;3.15;;;17.30;99.90;;;;;;4850713;29;20048;-44
2023/08/18 03:53:49;;;;;;;5.25;3.28;;;17.30;99.90;;;;;;4856751;29;20388;-47
2023/08/18 03:56:16;;;;;;;6.10;2.90;;;17.30;99.90;;;;;;4855224;29;20045;-45
2023/08/18 03:58:44;;;;;;;6.55;3.38;;;17.30;99.90;;;;;;4855562;29;20432;-47
2023/08/18 04:01:11;;;;;;;5.05;3.47;;;17.30;99.90;;;;;;4873511;29;20111;-44
2023/08/18 04:03:43;;;;;;;8.85;3.85;;;17.30;99.90;;;;;;4851988;29;20498;-46
2023/08/18 04:06:14;;;;;;;6.20;3.60;;;17.30;99.90;;;;;;4872914;29;20065;-45
2023/08/18 04:08:43;;;;;;;5.72;3.15;;;17.30;99.90;;;;;;4870887;29;20121;-49
2023/08/18 04:11:11;;;;;;;6.70;3.50;;;17.30;99.90;;;;;;4871106;29;20066;-46
2023/08/18 04:13:39;;;;;;;5.78;3.47;;;17.30;99.90;;;;;;4857511;29;20060;-48
2023/08/18 04:16:07;;;;;;;5.32;2.97;;;17.30;99.90;;;;;;4868741;29;20471;-45
2023/08/18 04:18:36;;;;;;;5.32;3.45;;;17.30;99.90;;;;;;4846211;29;20526;-48
2023/08/18 04:21:03;;;;;;;7.55;3.63;;;17.30;99.90;;;;;;4854945;29;20060;-44
2023/08/18 04:23:31;;;;;;;7.28;3.20;;;17.30;99.90;;;;;;4851740;29;20045;-47
2023/08/18 04:25:58;;;;;;;5.75;3.03;;;17.30;99.90;;;;;;4871943;29;20143;-45
2023/08/18 04:28:26;;;;;;;8.75;3.40;;;17.30;99.90;;;;;;4847114;29;20053;-48
2023/08/18 04:30:54;;;;;;;4.85;3.03;;;17.30;99.90;;;;;;4854974;29;20379;-46
2023/08/18 04:33:35;;;;;;;7.28;3.88;;;17.30;99.90;;;;;;4844986;29;20508;-48
2023/08/18 04:36:03;;;;;;;5.28;2.63;;;17.30;99.90;;;;;;4852426;29;20053;-47
2023/08/18 04:38:31;;;;;;;5.18;3.10;;;17.30;99.90;;;;;;4849451;29;20049;-48
2023/08/18 04:41:02;;;;;;;6.20;3.10;;;17.40;99.90;;;;;;4872993;29;20049;-46
2023/08/18 04:43:31;;;;;;;8.38;4.05;;;17.40;99.90;;;;;;4851084;29;20041;-46
2023/08/18 04:45:59;;;;;;;5.38;3.47;;;17.50;99.90;;;;;;4841299;24;20060;-72
2023/08/18 04:48:27;;;;;;;6.97;3.00;;;17.50;99.90;;;;;;4854903;29;20448;-72
2023/08/18 04:50:54;;;;;;;6.32;3.25;;;17.50;99.90;;;;;;4846732;29;20068;-72
2023/08/18 04:53:22;;;;;;;6.60;2.83;;;17.50;99.90;;;;;;4864883;29;20037;-74
2023/08/18 04:55:49;;;;;;;7.35;3.40;;;17.60;99.90;;;;;;4863798;29;20466;-71
2023/08/18 04:58:17;;;;;;;8.95;3.80;;;17.60;99.90;;;;;;4889219;29;20041;-69
2023/08/18 05:00:46;;;;;;;5.85;3.30;;;17.70;99.90;;;;;;4878279;29;20072;-72
2023/08/18 05:03:15;;;;;;;7.60;3.08;;;17.80;99.90;;;;;;4861243;29;20564;-72
2023/08/18 05:06:02;;;;;;;5.75;3.60;;;17.80;99.90;;;;;;4858707;29;20167;-72
2023/08/18 05:08:31;;;;;;;4.60;3.15;;;17.90;99.90;;;;;;4862842;29;20087;-71
2023/08/18 05:11:07;;;;;;;5.80;3.63;;;18.00;99.90;;;;;;4881385;29;20044;-71
2023/08/18 05:13:35;;;;;;;6.80;3.83;;;18.00;99.90;;;;;;4879759;29;20135;-74
2023/08/18 05:16:03;;;;;;;5.75;3.72;;;18.10;99.90;;;;;;4860409;29;20053;-70
2023/08/18 05:18:32;;;;;;;9.82;3.88;;;18.10;99.90;;;;;;4872262;29;20508;-71
2023/08/18 05:21:01;;;;;;;5.97;3.50;;;18.20;99.90;;;;;;4861384;29;20573;-71
2023/08/18 05:23:29;;;;;;;8.23;3.67;;;18.20;99.90;;;;;;4891876;29;20044;-71
2023/08/18 05:25:59;;;;;;;6.97;3.83;;;18.30;99.90;;;;;;4866633;29;20469;-72
2023/08/18 05:28:29;;;;;;;9.10;4.72;;;18.30;99.90;;;;;;4861948;29;20441;-72
2023/08/18 05:30:56;;;;;;;8.02;4.40;;;18.40;99.90;;;;;;4886462;29;20403;-71
2023/08/18 05:33:24;;;;;;;12.30;4.35;;;18.50;99.90;;;;;;4860761;29;20406;-72
2023/08/18 05:35:56;;;;;;;9.07;4.38;;;18.50;99.90;;;;;;4885863;29;20513;-73
2023/08/18 05:38:25;;;;;;;8.48;5.10;;;18.60;99.90;;;;;;4860030;29;20056;-72
2023/08/18 05:41:07;;;;;;;9.32;5.30;;;18.60;99.90;;;;;;4890982;29;20072;-73
2023/08/18 05:43:38;;;;;;;8.32;5.38;;;18.70;99.90;;;;;;4853457;29;20053;-73
2023/08/18 05:46:07;;;;;;;9.70;5.53;;;18.70;99.90;;;;;;4886769;29;20044;-72
2023/08/18 05:48:34;;;;;;;7.10;4.25;;;18.70;99.90;;;;;;4884043;29;20048;-72
2023/08/18 05:51:02;;;;;;;6.63;4.05;;;18.70;99.90;;;;;;4879281;29;20041;-72
2023/08/18 05:53:32;;;;;;;8.63;3.72;;;18.70;99.90;;;;;;4859461;29;20052;-72
2023/08/18 05:56:00;;;;;;;6.03;4.20;;;18.80;99.90;;;;;;4890123;29;20083;-70
2023/08/18 05:58:27;;;;;;;6.47;4.15;;;18.80;99.90;;;;;;4851891;29;20528;-72
2023/08/18 06:00:54;;;;;;;7.63;4.30;;;18.80;99.90;;;;;;4851382;29;20055;-72
2023/08/18 06:03:22;;;;;;;7.95;3.65;;;18.90;99.90;;;;;;4855496;29;20077;-72
2023/08/18 06:05:50;;;;;;;7.35;4.70;;;19.00;99.90;;;;;;4884674;29;20388;-74
2023/08/18 06:08:17;;;;;;;6.93;3.83;;;19.10;99.90;;;;;;4859650;29;20057;-72
2023/08/18 06:10:46;;;;;;;9.40;4.20;;;19.10;99.90;;;;;;4887765;29;20052;-72
2023/08/18 06:13:14;;;;;;;8.98;4.63;;;19.20;99.90;;;;;;4876973;29;20071;-72
2023/08/18 06:15:42;;;;;;;9.38;4.50;;;19.20;99.90;;;;;;4857935;29;20057;-72
2023/08/18 06:18:10;;;;;;;10.50;4.32;;;19.30;99.90;;;;;;4863768;29;20057;-71
2023/08/18 06:20:37;;;;;;;7.15;4.50;;;19.30;99.90;;;;;;4862486;29;20049;-70
2023/08/18 06:23:05;;;;;;;7.80;4.00;;;19.40;99.90;;;;;;4857370;29;20138;-72
2023/08/18 06:25:33;;;;;;;7.45;3.90;;;19.40;99.90;;;;;;4851678;29;20148;-72
2023/08/18 06:28:00;;;;;;;7.20;4.10;;;19.50;99.90;;;;;;4883407;29;20136;-72
2023/08/18 06:30:27;;;;;;;9.88;5.93;;;19.60;99.90;;;;;;4887633;29;20577;-72
2023/08/18 06:32:55;;;;;;;9.10;6.15;;;19.70;99.90;;;;;;4890164;29;20536;-72
2023/08/18 06:35:22;;;;;;;7.85;5.43;;;19.80;99.90;;;;;;4878563;29;20128;-72
2023/08/18 06:37:50;;;;;;;8.02;5.15;;;19.80;99.90;;;;;;4856594;29;20152;-71
2023/08/18 06:40:17;;;;;;;7.90;5.00;;;19.90;99.90;;;;;;4862393;29;21656;-72
2023/08/18 06:42:44;;;;;;;8.60;4.40;;;19.90;99.90;;;;;;4860654;29;20128;-72
2023/08/18 06:45:12;;;;;;;5.78;3.75;;;20.00;99.90;;;;;;4858173;29;20168;-72
2023/08/18 06:47:40;;;;;;;5.40;3.35;;;20.00;99.90;;;;;;4857688;29;20132;-72
2023/08/18 06:50:09;;;;;;;7.95;4.78;;;20.00;99.90;;;;;;4884631;29;20040;-72
2023/08/18 06:52:37;;;;;;;6.88;4.05;;;20.10;99.90;;;;;;4883538;29;20048;-72
2023/08/18 06:55:13;;;;;;;7.10;3.78;;;20.20;99.90;;;;;;4876046;29;20127;-72
2023/08/18 06:57:47;;;;;;;9.82;4.50;;;20.20;99.90;;;;;;4876751;29;20127;-72
2023/08/18 07:00:15;;;;;;;6.30;4.45;;;20.30;99.90;;;;;;4887659;29;20653;-73
2023/08/18 07:02:46;;;;;;;7.88;4.13;;;20.30;99.90;;;;;;4865104;29;20053;-71
2023/08/18 07:05:14;;;;;;;8.32;3.90;;;20.40;99.90;;;;;;4884897;29;20053;-72
2023/08/18 07:07:41;;;;;;;6.75;2.95;;;20.40;99.90;;;;;;4868058;29;20143;-72
2023/08/18 07:10:09;;;;;;;7.40;3.42;;;20.50;99.90;;;;;;4855585;29;20049;-72
2023/08/18 07:12:36;;;;;;;8.85;3.40;;;20.60;99.90;;;;;;4890173;29;20048;-72
2023/08/18 07:15:04;;;;;;;5.00;3.28;;;20.70;99.90;;;;;;4857110;29;20060;-71
2023/08/18 07:17:32;;;;;;;7.70;3.72;;;20.70;99.90;;;;;;4877705;29;20585;-71
2023/08/18 07:19:59;;;;;;;6.18;3.45;;;20.80;99.90;;;;;;4858523;29;20113;-71
2023/08/18 07:22:27;;;;;;;6.53;3.50;;;20.80;99.90;;;;;;4856250;29;20105;-71
2023/08/18 07:24:54;;;;;;;6.93;4.15;;;20.90;99.90;;;;;;4845548;29;20580;-71
2023/08/18 07:27:22;;;;;;;7.22;3.95;;;21.00;99.90;;;;;;4887944;29;20132;-72
2023/08/18 07:29:49;;;;;;;12.20;5.78;;;21.10;99.90;;;;;;4860387;29;20316;-71
2023/08/18 07:32:17;;;;;;;6.65;3.78;;;21.20;99.90;;;;;;4886674;29;20467;-71
2023/08/18 07:34:45;;;;;;;6.47;3.90;;;21.20;99.90;;;;;;4883813;29;20041;-71
2023/08/18 07:37:12;;;;;;;7.10;4.50;;;21.30;99.90;;;;;;4883375;29;20053;-71
2023/08/18 07:39:39;;;;;;;5.70;4.10;;;21.40;99.90;;;;;;4884198;29;20135;-72
2023/08/18 07:42:08;;;;;;;6.78;3.85;;;21.50;99.90;;;;;;4886281;29;20132;-71
2023/08/18 07:44:35;;;;;;;7.72;4.03;;;21.60;99.90;;;;;;4856123;29;20059;-71
2023/08/18 07:47:03;;;;;;;9.23;4.00;;;21.70;99.90;;;;;;4877026;29;20160;-71
2023/08/18 07:49:30;;;;;;;8.23;4.35;;;21.70;99.90;;;;;;4871948;29;20051;-71
2023/08/18 07:51:58;;;;;;;9.20;3.80;;;21.90;99.90;;;;;;4883771;29;20101;-73
2023/08/18 07:54:26;;;;;;;8.35;4.18;;;21.90;99.90;;;;;;4878839;29;20105;-71
2023/08/18 07:56:54;;;;;;;6.55;4.50;;;22.00;99.90;;;;;;4885331;29;20169;-72
2023/08/18 07:59:21;;;;;;;7.07;3.60;;;22.10;99.90;;;;;;4886852;29;20136;-71
2023/08/18 08:01:49;;;;;;;5.90;3.72;;;22.10;99.90;;;;;;4890305;29;20533;-71
2023/08/18 08:04:16;;;;;;;6.82;3.97;;;22.20;99.90;;;;;;4861814;29;20321;-71
2023/08/18 08:06:44;;;;;;;5.45;3.30;;;22.20;99.90;;;;;;4865091;29;20072;-71
2023/08/18 08:09:12;;;;;;;5.50;3.40;;;22.20;99.90;;;;;;4861893;29;20472;-71
2023/08/18 08:11:40;;;;;;;18.65;9.98;;;22.30;99.90;;;;;;4847237;29;20055;-71
2023/08/18 08:14:07;;;;;;;8.88;4.85;;;22.30;99.90;;;;;;4857146;29;20057;-71
2023/08/18 08:16:35;;;;;;;5.00;3.92;;;22.50;99.90;;;;;;4883864;29;20055;-71
2023/08/18 08:19:04;;;;;;;5.57;3.20;;;22.60;99.90;;;;;;4888067;29;20048;-71
2023/08/18 08:21:32;;;;;;;7.95;4.50;;;22.70;99.90;;;;;;4888695;29;20044;-71
2023/08/18 08:24:04;;;;;;;5.90;4.57;;;22.80;99.90;;;;;;4858787;29;20056;-71
2023/08/18 08:26:31;;;;;;;7.90;4.07;;;23.00;99.90;;;;;;4861422;29;20052;-71
2023/08/18 08:28:58;;;;;;;8.88;4.15;;;23.00;99.90;;;;;;4891583;29;20076;-71
2023/08/18 08:31:27;;;;;;;5.95;4.25;;;23.00;99.90;;;;;;4863389;29;20049;-72
2023/08/18 08:33:54;;;;;;;6.38;4.80;;;23.00;99.90;;;;;;4876069;29;20091;-71
2023/08/18 08:36:21;;;;;;;6.78;4.10;;;23.10;99.90;;;;;;4887994;29;20111;-71
2023/08/18 08:38:49;;;;;;;9.30;4.57;;;23.20;99.90;;;;;;4865165;29;20408;-72
2023/08/18 08:41:17;;;;;;;5.97;4.20;;;23.30;99.90;;;;;;4857614;29;20059;-71
2023/08/18 08:43:44;;;;;;;6.00;4.10;;;23.20;99.90;;;;;;4891928;29;20551;-71
2023/08/18 08:46:13;;;;;;;8.00;4.65;;;23.20;99.90;;;;;;4890447;29;20059;-71
2023/08/18 08:48:46;;;;;;;6.82;5.22;;;23.30;99.90;;;;;;4861583;29;20114;-71
2023/08/18 08:51:15;;;;;;;8.50;5.30;;;23.40;99.90;;;;;;4860412;29;20053;-71
2023/08/18 08:53:56;;;;;;;6.57;4.85;;;23.50;99.90;;;;;;4863076;29;20144;-71
2023/08/18 08:56:35;;;;;;;6.88;4.50;;;23.60;99.90;;;;;;4892342;29;20052;-71
2023/08/18 08:59:03;;;;;;;4.90;3.63;;;23.60;99.90;;;;;;4876369;29;20123;-72
2023/08/18 09:01:30;;;;;;;6.00;5.38;;;23.80;99.90;;;;;;4892199;29;20089;-72
2023/08/18 09:03:58;;;;;;;6.45;4.68;;;23.80;99.90;;;;;;4862399;29;20046;-71
2023/08/18 09:06:25;;;;;;;7.07;5.15;;;23.80;99.90;;;;;;4875887;29;20057;-71
2023/08/18 09:08:53;;;;;;;9.68;7.45;;;23.90;99.90;;;;;;4874547;29;20084;-71
2023/08/18 09:11:42;;;;;;;6.35;5.25;;;24.00;99.90;;;;;;4851546;29;20068;-72
2023/08/18 09:14:09;;;;;;;6.13;4.40;;;24.00;99.90;;;;;;4865028;29;20125;-71
2023/08/18 09:16:38;;;;;;;6.78;4.25;;;24.00;99.90;;;;;;4892087;29;20048;-71
2023/08/18 09:19:05;;;;;;;6.38;4.38;;;24.10;99.90;;;;;;4864967;29;20045;-71
2023/08/18 09:21:33;;;;;;;6.32;4.90;;;24.10;99.90;;;;;;4852259;29;20084;-72
2023/08/18 09:24:05;;;;;;;7.03;5.05;;;24.20;99.90;;;;;;4890114;29;20044;-71
2023/08/18 09:26:32;;;;;;;6.22;4.93;;;24.40;99.90;;;;;;4852903;29;20555;-72
2023/08/18 09:29:00;;;;;;;5.88;4.53;;;24.50;99.90;;;;;;4847393;29;20117;-71
2023/08/18 09:31:28;;;;;;;5.90;5.30;;;24.70;99.90;;;;;;4880190;29;20048;-72
2023/08/18 09:33:55;;;;;;;5.80;4.97;;;24.80;99.90;;;;;;4890394;29;20132;-72
2023/08/18 09:36:23;;;;;;;7.40;6.28;;;24.80;99.90;;;;;;4860314;29;20483;-71
2023/08/18 09:38:50;;;;;;;6.25;5.03;;;24.90;99.90;;;;;;4858327;29;20495;-73
2023/08/18 09:41:19;;;;;;;7.25;5.40;;;25.00;99.90;;;;;;4881023;29;20522;-71
2023/08/18 09:43:48;;;;;;;11.30;7.53;;;25.10;99.90;;;;;;4870562;29;20052;-71
2023/08/18 09:46:17;;;;;;;6.10;5.30;;;25.30;99.90;;;;;;4888506;29;20555;-73
2023/08/18 09:48:47;;;;;;;6.35;4.20;;;25.50;99.90;;;;;;4887812;29;20080;-71
2023/08/18 09:51:17;;;;;;;7.28;5.88;;;25.50;99.90;;;;;;4863507;29;20076;-71
2023/08/18 09:53:56;;;;;;;6.97;4.70;;;25.70;99.90;;;;;;4846700;29;20048;-71
2023/08/18 09:56:27;;;;;;;14.18;11.75;;;25.80;99.90;;;;;;4861935;29;20045;-71
2023/08/18 09:59:12;;;;;;;7.32;5.40;;;25.90;99.90;;;;;;4863197;29;20164;-71
2023/08/18 10:01:42;;;;;;;5.88;4.85;;;26.00;99.90;;;;;;4853547;29;20064;-71
2023/08/18 10:04:10;;;;;;;5.65;4.90;;;26.20;99.90;;;;;;4857859;29;20060;-71
2023/08/18 10:06:39;;;;;;;5.53;4.68;;;26.30;99.90;;;;;;4869908;29;20466;-71
2023/08/18 10:09:06;;;;;;;5.38;4.55;;;26.40;99.90;;;;;;4887182;29;20128;-72
2023/08/18 10:11:35;;;;;;;6.25;5.25;;;26.60;99.90;;;;;;4854761;29;20549;-72
2023/08/18 10:14:21;;;;;;;5.97;5.38;;;26.70;99.90;;;;;;4860395;29;20052;-71
2023/08/18 10:16:50;;;;;;;5.70;5.20;;;26.80;99.90;;;;;;4851510;29;20047;-72
2023/08/18 10:19:58;;;;;;;5.60;5.00;;;26.90;99.90;;;;;;4875769;29;20056;-71
2023/08/18 10:22:28;;;;;;;6.20;5.60;;;27.00;99.90;;;;;;4863659;29;20530;-73
2023/08/18 10:24:56;;;;;;;5.80;4.25;;;27.10;99.90;;;;;;4859515;29;20499;-72
2023/08/18 10:27:26;;;;;;;5.10;4.60;;;27.30;99.90;;;;;;4859719;29;20053;-73
2023/08/18 10:30:00;;;;;;;5.20;4.70;;;27.40;99.90;;;;;;4891672;29;20148;-72
2023/08/18 10:32:30;;;;;;;5.60;5.07;;;27.60;99.90;;;;;;4890331;29;20100;-72
2023/08/18 10:35:21;;;;;;;5.60;5.10;;;27.70;99.90;;;;;;4884972;29;20049;-73
2023/08/18 10:38:02;;;;;;;6.45;5.50;;;27.70;99.90;;;;;;4851251;29;20037;-72
2023/08/18 10:40:37;;;;;;;5.80;5.30;;;27.80;99.90;;;;;;4858712;29;20053;-72
2023/08/18 10:43:10;;;;;;;6.30;5.70;;;27.90;99.90;;;;;;4854077;29;20055;-73
2023/08/18 10:45:48;;;;;;;6.25;5.10;;;28.00;99.90;;;;;;4879489;29;20120;-72
2023/08/18 10:48:15;;;;;;;6.13;5.53;;;28.10;99.90;;;;;;4884681;29;20107;-73
2023/08/18 10:50:44;;;;;;;5.72;4.97;;;28.00;99.90;;;;;;4860794;29;20568;-73
2023/08/18 10:53:12;;;;;;;7.10;6.47;;;28.00;99.90;;;;;;4843924;29;20152;-72
2023/08/18 10:55:43;;;;;;;6.55;5.95;;;28.00;99.90;;;;;;4868952;29;20044;-72
2023/08/18 10:58:14;;;;;;;6.28;5.68;;;28.20;99.90;;;;;;4885143;29;20122;-72
2023/08/18 11:00:42;;;;;;;6.03;5.43;;;28.40;99.90;;;;;;4861511;29;20048;-72
2023/08/18 11:03:09;;;;;;;6.47;5.70;;;28.60;99.90;;;;;;4867347;29;20053;-72
2023/08/18 11:05:37;;;;;;;6.50;5.82;;;28.80;99.90;;;;;;4883133;29;20548;-72
2023/08/18 11:08:09;;;;;;;7.03;6.25;;;28.90;99.90;;;;;;4863568;29;20132;-70
2023/08/18 11:10:39;;;;;;;6.43;5.85;;;29.10;99.90;;;;;;4854355;29;20605;-73
2023/08/18 11:13:21;;;;;;;6.32;5.72;;;29.20;99.90;;;;;;4859206;29;20057;-73
2023/08/18 11:15:50;;;;;;;6.90;6.30;;;29.30;99.90;;;;;;4881605;29;20429;-73
2023/08/18 11:18:20;;;;;;;6.57;5.97;;;29.50;99.90;;;;;;4859077;29;20079;-73
2023/08/18 11:20:51;;;;;;;7.30;6.60;;;29.60;99.90;;;;;;4857043;29;20080;-71
2023/08/18 11:23:19;;;;;;;7.20;6.50;;;29.80;99.90;;;;;;4885968;29;20060;-73
2023/08/18 11:25:47;;;;;;;8.13;7.03;;;30.00;99.90;;;;;;4889642;29;20053;-73
2023/08/18 11:28:15;;;;;;;7.15;6.53;;;30.10;99.90;;;;;;4886475;29;20347;-73
2023/08/18 11:30:43;;;;;;;6.97;6.28;;;30.30;99.90;;;;;;4851734;29;20041;-73
2023/08/18 11:33:11;;;;;;;6.95;6.32;;;30.40;99.90;;;;;;4882607;29;20402;-73
2023/08/18 11:35:40;;;;;;;7.28;6.63;;;30.40;99.90;;;;;;4889473;29;20386;-73
2023/08/18 11:38:08;;;;;;;7.30;6.60;;;30.40;99.90;;;;;;4882590;29;20048;-73
2023/08/18 11:40:38;;;;;;;7.72;7.00;;;30.60;99.90;;;;;;4876389;29;20159;-74
2023/08/18 11:43:10;;;;;;;6.32;5.80;;;30.80;99.90;;;;;;4881711;29;20066;-73
2023/08/18 11:45:38;;;;;;;6.82;6.22;;;31.00;99.90;;;;;;4859625;29;20052;-73
2023/08/18 11:48:06;;;;;;;7.53;6.93;;;31.00;99.90;;;;;;4866537;29;20068;-73
2023/08/18 11:50:38;;;;;;;7.90;7.07;;;31.00;99.90;;;;;;4883693;29;20052;-73
2023/08/18 11:53:07;;;;;;;6.90;6.30;;;30.90;99.90;;;;;;4881923;29;20053;-73
2023/08/18 11:55:38;;;;;;;6.85;6.25;;;31.20;99.90;;;;;;4876732;29;20097;-74
2023/08/18 11:58:09;;;;;;;6.75;6.15;;;31.60;99.90;;;;;;4859882;29;20525;-73
2023/08/18 12:00:38;;;;;;;;;;;31.90;99.90;;;;;;4827092;29;20415;-74
2023/08/18 12:03:27;;;;;;;7.43;6.75;;;31.70;99.90;;;;;;4889215;29;19931;-73
2023/08/18 12:05:57;;;;;;;8.48;7.30;;;31.80;99.90;;;;;;4855345;29;20049;-73
2023/08/18 12:08:28;;;;;;;7.93;7.15;;;32.00;99.90;;;;;;4858885;29;20482;-74
2023/08/18 12:10:57;;;;;;;8.32;6.50;;;32.50;99.90;;;;;;4891229;29;20052;-72
2023/08/18 12:13:31;;;;;;;9.20;6.95;;;32.90;99.90;;;;;;4861200;29;20056;-74
2023/08/18 12:15:59;;;;;;;6.43;5.78;;;33.30;99.90;;;;;;4854201;29;20049;-74
2023/08/18 12:18:28;;;;;;;7.53;6.93;;;33.30;99.90;;;;;;4891972;29;20041;-74
2023/08/18 12:20:55;;;;;;;7.70;6.95;;;33.50;99.90;;;;;;4864250;29;20056;-74
2023/08/18 12:23:23;;;;;;;7.88;7.10;;;33.70;99.90;;;;;;4850036;29;20077;-74
2023/08/18 12:25:50;;;;;;;7.72;7.10;;;33.90;99.90;;;;;;4850211;29;20059;-75
2023/08/18 12:28:18;;;;;;;7.68;7.00;;;34.00;99.90;;;;;;4886046;29;20140;-74
2023/08/18 12:30:45;;;;;;;7.60;6.90;;;34.30;99.90;;;;;;4869541;29;22488;-74
2023/08/18 12:33:13;;;;;;;7.65;6.97;;;34.60;99.90;;;;;;4856258;29;20048;-74
2023/08/18 12:35:41;;;;;;;7.72;7.03;;;34.60;99.90;;;;;;4865109;29;20060;-74
2023/08/18 12:38:10;;;;;;;8.13;7.43;;;34.90;99.90;;;;;;4859412;29;20044;-75
2023/08/18 12:40:37;;;;;;;7.40;6.80;;;35.10;99.90;;;;;;4865710;29;20067;-75
2023/08/18 12:43:05;;;;;;;7.78;7.07;;;35.30;99.90;;;;;;4847162;29;20083;-75
2023/08/18 12:45:33;;;;;;;8.18;7.47;;;35.40;99.90;;;;;;4879951;29;20136;-75
2023/08/18 12:48:02;;;;;;;7.60;7.00;;;35.30;99.90;;;;;;4865567;29;20045;-75
2023/08/18 12:50:30;;;;;;;7.65;7.00;;;35.60;99.90;;;;;;4861086;29;20075;-75
2023/08/18 12:52:58;;;;;;;7.85;7.13;;;35.50;99.90;;;;;;4880919;29;20464;-74
2023/08/18 12:55:26;;;;;;;7.65;6.97;;;35.80;99.90;;;;;;4891550;29;20601;-75